createdAt,value
2019-01-15T00:01:57.544Z,6.87
2019-01-15T00:04:31.403Z,8.30
2019-01-15T00:07:05.725Z,9.90
2019-01-15T00:09:39.399Z,7.40
2019-01-15T00:12:13.020Z,7.37
2019-01-15T00:14:46.677Z,8.07
2019-01-15T00:17:20.295Z,9.90
2019-01-15T00:19:53.907Z,8.77
2019-01-15T00:22:27.532Z,8.93
2019-01-15T00:25:01.113Z,7.23
2019-01-15T00:27:35.021Z,8.13
2019-01-15T00:30:17.132Z,11.43
2019-01-15T00:32:50.892Z,10.73
2019-01-15T00:35:25.438Z,6.93
2019-01-15T00:37:59.120Z,5.93
2019-01-15T00:40:32.883Z,4.53
2019-01-15T00:43:06.554Z,10.03
2019-01-15T00:45:40.243Z,9.67
2019-01-15T00:48:13.842Z,4.10
2019-01-15T00:50:47.479Z,8.00
2019-01-15T00:53:21.050Z,5.23
2019-01-15T00:55:54.684Z,7.70
2019-01-15T00:58:29.541Z,5.10
2019-01-15T01:01:03.297Z,9.90
2019-01-15T01:03:36.942Z,8.37
2019-01-15T01:06:10.583Z,7.80
2019-01-15T01:08:44.239Z,12.43
2019-01-15T01:11:18.041Z,8.33
2019-01-15T01:13:51.688Z,6.83
2019-01-15T01:16:25.520Z,6.77
2019-01-15T01:18:59.104Z,8.37
2019-01-15T01:21:32.834Z,7.03
2019-01-15T01:24:06.427Z,5.60
2019-01-15T01:26:40.050Z,5.77
2019-01-15T01:32:59.480Z,5.70
2019-01-15T01:35:33.062Z,5.27
2019-01-15T01:38:06.890Z,4.50
2019-01-15T01:40:40.677Z,9.60
2019-01-15T01:43:14.306Z,5.80
2019-01-15T01:49:35.986Z,8.17
2019-01-15T01:52:09.650Z,7.23
2019-01-15T01:54:43.330Z,8.00
2019-01-15T01:57:16.934Z,8.67
2019-01-15T01:59:50.588Z,5.77
2019-01-15T02:02:24.238Z,7.37
2019-01-15T02:04:57.886Z,5.10
2019-01-15T02:07:31.467Z,9.00
2019-01-15T02:10:08.105Z,7.00
2019-01-15T02:12:41.770Z,6.77
2019-01-15T02:15:22.571Z,3.07
2019-01-15T02:17:56.154Z,9.00
2019-01-15T02:20:29.940Z,7.87
2019-01-15T02:23:03.589Z,7.33
2019-01-15T02:25:37.208Z,6.20
2019-01-15T02:28:10.810Z,9.47
2019-01-15T02:30:44.598Z,5.73
2019-01-15T02:33:18.255Z,3.20
2019-01-15T02:35:52.040Z,4.50
2019-01-15T02:38:25.621Z,4.57
2019-01-15T02:40:59.238Z,8.30
2019-01-15T02:43:32.959Z,4.83
2019-01-15T02:46:06.577Z,4.03
2019-01-15T02:48:40.154Z,5.10
2019-01-15T02:51:13.776Z,4.60
2019-01-15T02:53:47.368Z,4.83
2019-01-15T02:56:20.986Z,5.77
2019-01-15T02:58:54.586Z,5.67
2019-01-15T03:01:28.255Z,4.97
2019-01-15T03:04:01.868Z,5.57
2019-01-15T03:06:35.440Z,6.40
2019-01-15T03:09:09.211Z,3.00
2019-01-15T03:11:42.784Z,6.93
2019-01-15T03:14:16.420Z,5.63
2019-01-15T03:16:50.010Z,3.13
2019-01-15T03:19:23.665Z,6.43
2019-01-15T03:21:57.305Z,4.23
2019-01-15T03:24:30.892Z,3.67
2019-01-15T03:27:04.717Z,5.33
2019-01-15T03:29:41.183Z,4.10
2019-01-15T03:32:14.808Z,5.93
2019-01-15T03:34:48.380Z,2.50
2019-01-15T03:37:22.028Z,7.23
2019-01-15T03:39:55.600Z,4.30
2019-01-15T03:42:29.469Z,10.13
2019-01-15T03:48:49.409Z,7.20
2019-01-15T03:51:22.979Z,5.90
2019-01-15T03:53:56.606Z,5.37
2019-01-15T03:56:30.208Z,5.10
2019-01-15T03:59:03.958Z,8.00
2019-01-15T04:05:24.160Z,4.70
2019-01-15T04:07:58.174Z,5.07
2019-01-15T04:10:31.964Z,6.70
2019-01-15T04:13:11.261Z,5.50
2019-01-15T04:15:41.031Z,6.30
2019-01-15T04:18:14.756Z,5.00
2019-01-15T04:20:48.526Z,7.00
2019-01-15T04:23:22.164Z,5.50
2019-01-15T04:25:55.792Z,7.87
2019-01-15T04:28:29.368Z,7.90
2019-01-15T04:31:02.966Z,7.50
2019-01-15T04:33:36.580Z,3.63
2019-01-15T04:36:10.164Z,5.33
2019-01-15T04:38:43.799Z,5.70
2019-01-15T04:41:17.474Z,5.43
2019-01-15T04:43:51.191Z,5.63
2019-01-15T04:46:24.766Z,4.70
2019-01-15T04:48:58.396Z,6.17
2019-01-15T04:51:32.004Z,7.77
2019-01-15T04:54:05.696Z,10.23
2019-01-15T04:56:39.594Z,11.20
2019-01-15T04:59:13.299Z,21.70
2019-01-15T05:01:46.872Z,27.70
2019-01-15T05:04:20.598Z,11.80
2019-01-15T05:06:54.433Z,11.07
2019-01-15T05:09:28.019Z,9.90
2019-01-15T05:12:01.788Z,8.60
2019-01-15T05:14:35.368Z,6.53
2019-01-15T05:17:09.014Z,10.00
2019-01-15T05:19:42.570Z,3.93
2019-01-15T05:22:16.247Z,6.20
2019-01-15T05:24:49.819Z,5.90
2019-01-15T05:27:23.449Z,4.17
2019-01-15T05:29:57.033Z,4.13
2019-01-15T05:32:30.616Z,8.10
2019-01-15T05:35:05.217Z,6.80
2019-01-15T05:37:38.794Z,9.80
2019-01-15T05:40:14.187Z,3.90
2019-01-15T05:42:47.817Z,8.03
2019-01-15T05:48:23.951Z,8.30
2019-01-15T05:51:07.910Z,6.80
2019-01-15T05:53:41.541Z,7.57
2019-01-15T05:56:15.195Z,8.53
2019-01-15T05:58:48.806Z,8.90
2019-01-15T06:05:10.830Z,13.57
2019-01-15T06:07:44.488Z,10.37
2019-01-15T06:10:18.260Z,5.10
2019-01-15T06:12:51.838Z,11.90
2019-01-15T06:15:25.488Z,7.10
2019-01-15T06:21:45.032Z,12.53
2019-01-15T06:24:18.620Z,11.50
2019-01-15T06:26:52.355Z,7.67
2019-01-15T06:29:25.938Z,8.40
2019-01-15T06:31:59.631Z,11.40
2019-01-15T06:34:33.254Z,10.83
2019-01-15T06:37:06.953Z,13.77
2019-01-15T06:39:40.603Z,12.53
2019-01-15T06:42:14.238Z,8.70
2019-01-15T06:44:47.963Z,18.20
2019-01-15T06:47:21.585Z,8.13
2019-01-15T06:49:55.185Z,13.17
2019-01-15T06:52:28.925Z,14.87
2019-01-15T06:55:02.591Z,10.80
2019-01-15T06:57:36.224Z,10.93
2019-01-15T07:00:15.648Z,13.27
2019-01-15T07:02:49.428Z,8.70
2019-01-15T07:05:23.244Z,7.80
2019-01-15T07:07:56.956Z,7.83
2019-01-15T07:10:38.525Z,7.37
2019-01-15T07:13:12.181Z,5.47
2019-01-15T07:15:45.768Z,10.70
2019-01-15T07:18:19.390Z,9.63
2019-01-15T07:20:53.053Z,11.97
2019-01-15T07:23:26.690Z,9.00
2019-01-15T07:26:00.400Z,8.80
2019-01-15T07:28:34.087Z,9.63
2019-01-15T07:34:54.530Z,8.00
2019-01-15T07:37:28.169Z,8.63
2019-01-15T07:40:01.786Z,8.83
2019-01-15T07:42:35.519Z,8.70
2019-01-15T07:45:13.686Z,8.23
2019-01-15T07:51:33.835Z,7.70
2019-01-15T07:54:07.656Z,7.53
2019-01-15T07:56:41.308Z,12.53
2019-01-15T07:59:15.038Z,10.13
2019-01-15T08:01:49.076Z,6.90
2019-01-15T08:04:22.771Z,6.40
2019-01-15T08:06:56.755Z,8.17
2019-01-15T08:09:30.342Z,7.87
2019-01-15T08:12:04.251Z,8.43
2019-01-15T08:14:37.931Z,8.13
2019-01-15T08:17:11.515Z,12.33
2019-01-15T08:19:45.145Z,7.90
2019-01-15T08:22:18.817Z,12.70
2019-01-15T08:24:52.434Z,13.47
2019-01-15T08:27:26.084Z,8.50
2019-01-15T08:29:59.662Z,12.07
2019-01-15T08:32:33.375Z,11.53
2019-01-15T08:35:07.447Z,9.50
2019-01-15T08:37:41.159Z,13.53
2019-01-15T08:40:16.845Z,11.43
2019-01-15T08:42:50.516Z,17.27
2019-01-15T08:45:24.211Z,11.70
2019-01-15T08:48:05.177Z,12.77
2019-01-15T08:50:39.247Z,14.60
2019-01-15T08:53:13.986Z,9.00
2019-01-15T08:55:48.993Z,11.43
2019-01-15T08:58:22.647Z,11.30
2019-01-15T09:00:56.406Z,9.30
2019-01-15T09:03:29.986Z,13.83
2019-01-15T09:06:04.053Z,9.23
2019-01-15T09:08:37.712Z,7.63
2019-01-15T09:11:11.972Z,8.73
2019-01-15T09:13:45.653Z,16.03
2019-01-15T09:16:19.216Z,11.47
2019-01-15T09:18:52.809Z,12.67
2019-01-15T09:21:26.740Z,7.47
2019-01-15T09:24:00.342Z,7.23
2019-01-15T09:26:34.510Z,12.67
2019-01-15T09:29:08.335Z,9.53
2019-01-15T09:35:20.567Z,7.90
2019-01-15T09:37:54.303Z,13.73
2019-01-15T09:40:29.125Z,12.60
2019-01-15T09:43:02.825Z,9.83
2019-01-15T09:45:36.498Z,11.53
2019-01-15T09:51:46.479Z,9.63
2019-01-15T09:54:20.136Z,11.17
2019-01-15T09:56:53.812Z,13.43
2019-01-15T09:59:28.054Z,6.63
2019-01-15T10:02:01.689Z,6.80
2019-01-15T10:04:35.283Z,9.50
2019-01-15T10:07:09.059Z,6.33
2019-01-15T10:09:42.769Z,6.73
2019-01-15T10:12:16.567Z,9.73
2019-01-15T10:14:50.157Z,11.27
2019-01-15T10:17:23.847Z,10.33
2019-01-15T10:19:57.553Z,6.27
2019-01-15T10:22:31.181Z,11.23
2019-01-15T10:25:07.015Z,11.37
2019-01-15T10:27:40.969Z,13.63
2019-01-15T10:30:22.227Z,6.90
2019-01-15T10:33:07.442Z,8.73
2019-01-15T10:35:52.859Z,10.80
2019-01-15T10:38:28.781Z,9.33
2019-01-15T10:41:02.742Z,10.87
2019-01-15T10:43:36.393Z,6.83
2019-01-15T10:46:10.544Z,8.53
2019-01-15T10:48:44.225Z,10.33
2019-01-15T10:51:17.846Z,7.87
2019-01-15T10:53:51.452Z,7.33
2019-01-15T10:56:26.767Z,7.90
2019-01-15T10:59:00.398Z,5.90
2019-01-15T11:01:34.086Z,9.67
2019-01-15T11:04:07.783Z,5.53
2019-01-15T11:06:41.503Z,7.07
2019-01-15T11:09:15.214Z,12.67
2019-01-15T11:11:48.888Z,11.07
2019-01-15T11:14:22.801Z,9.30
2019-01-15T11:16:57.985Z,7.40
2019-01-15T11:19:31.677Z,8.13
2019-01-15T11:22:05.425Z,8.87
2019-01-15T11:24:39.131Z,14.83
2019-01-15T11:27:12.715Z,8.50
2019-01-15T11:29:48.110Z,14.60
2019-01-15T11:36:07.890Z,7.40
2019-01-15T11:38:41.614Z,6.90
2019-01-15T11:41:15.438Z,7.10
2019-01-15T11:43:49.064Z,5.53
2019-01-15T11:46:22.686Z,5.43
2019-01-15T11:52:42.415Z,9.35
2019-01-15T11:55:16.063Z,4.53
2019-01-15T11:57:49.686Z,6.17
2019-01-15T12:00:30.358Z,6.70
2019-01-15T12:03:12.586Z,5.43
2019-01-15T12:05:53.534Z,7.17
2019-01-15T12:08:28.858Z,8.43
2019-01-15T12:11:20.241Z,4.07
2019-01-15T12:14:01.297Z,4.17
2019-01-15T12:16:45.157Z,6.57
2019-01-15T12:19:20.393Z,6.63
2019-01-15T12:22:11.840Z,7.23
2019-01-15T12:24:49.636Z,4.57
2019-01-15T12:27:39.692Z,6.07
2019-01-15T12:30:19.500Z,8.07
2019-01-15T12:36:38.154Z,7.57
2019-01-15T12:39:30.024Z,8.33
2019-01-15T12:42:22.130Z,8.17
2019-01-15T12:45:03.354Z,8.30
2019-01-15T12:54:28.029Z,13.03
2019-01-15T12:57:08.926Z,9.97
2019-01-15T13:00:02.169Z,4.00
2019-01-15T13:09:33.538Z,9.90
2019-01-15T13:12:20.858Z,7.70
2019-01-15T13:15:13.964Z,5.53
2019-01-15T13:17:49.177Z,6.87
2019-01-15T13:24:01.646Z,5.50
2019-01-15T13:26:42.726Z,9.57
2019-01-15T13:29:34.474Z,8.47
2019-01-15T13:32:18.646Z,14.27
2019-01-15T13:34:57.152Z,8.00
2019-01-15T13:37:41.463Z,13.00
2019-01-15T13:40:22.528Z,11.30
2019-01-15T13:43:16.040Z,8.93
2019-01-15T13:45:51.383Z,8.30
2019-01-15T13:49:09.445Z,12.27
2019-01-15T13:51:47.599Z,7.83
2019-01-15T13:57:37.754Z,13.27
2019-01-15T14:00:16.398Z,11.47
2019-01-15T14:03:00.778Z,8.83
2019-01-15T14:05:36.079Z,8.23
2019-01-15T14:08:27.571Z,6.40
2019-01-15T14:11:21.183Z,9.47
2019-01-15T14:14:08.530Z,10.83
2019-01-15T14:16:46.846Z,14.50
2019-01-15T14:19:25.058Z,18.60
2019-01-15T14:22:16.508Z,15.23
2019-01-15T14:24:58.414Z,11.63
2019-01-15T14:27:31.635Z,10.37
2019-01-15T14:30:26.154Z,10.43
2019-01-15T14:33:17.876Z,11.07
2019-01-15T14:35:53.224Z,14.90
2019-01-15T14:38:45.183Z,24.20
2019-01-15T14:41:26.312Z,23.47
2019-01-15T14:44:10.459Z,30.03
2019-01-15T14:46:45.744Z,18.87
2019-01-15T14:49:29.601Z,15.50
2019-01-15T14:52:13.863Z,18.37
2019-01-15T14:54:54.617Z,9.53
2019-01-15T14:57:29.898Z,14.33
2019-01-15T15:00:07.015Z,13.90
2019-01-15T15:02:47.875Z,11.53
2019-01-15T15:05:23.108Z,10.87
2019-01-15T15:08:07.173Z,14.93
2019-01-15T15:10:44.933Z,12.73
2019-01-15T15:13:25.934Z,12.17
2019-01-15T15:16:17.632Z,22.17
2019-01-15T15:18:52.914Z,9.50
2019-01-15T15:21:40.173Z,15.97
2019-01-15T15:24:18.178Z,9.87
2019-01-15T15:26:53.466Z,9.93
2019-01-15T15:29:45.048Z,10.63
2019-01-15T15:32:20.346Z,8.00
2019-01-15T15:34:55.681Z,9.70
2019-01-15T15:37:43.848Z,9.47
2019-01-15T15:40:35.747Z,11.17
2019-01-15T15:43:22.866Z,15.77
2019-01-15T15:46:00.941Z,16.97
2019-01-15T15:48:38.739Z,10.60
2019-01-15T15:51:30.651Z,11.40
2019-01-15T15:54:06.422Z,19.10
2019-01-15T15:56:41.694Z,14.57
2019-01-15T15:59:20.015Z,15.43
2019-01-15T16:01:55.369Z,12.57
2019-01-15T16:04:39.466Z,13.63
2019-01-15T16:07:30.969Z,14.37
2019-01-15T16:10:17.945Z,17.47
2019-01-15T16:12:53.183Z,15.50
2019-01-15T16:15:44.873Z,14.30
2019-01-15T16:18:20.168Z,13.33
2019-01-15T16:21:12.947Z,15.23
2019-01-15T16:23:51.224Z,11.03
2019-01-15T16:26:26.574Z,12.13
2019-01-15T16:29:04.449Z,15.63
2019-01-15T16:31:45.734Z,12.53
2019-01-15T16:34:32.875Z,20.03
2019-01-15T16:37:08.237Z,21.00
2019-01-15T16:39:46.104Z,16.70
2019-01-15T16:42:33.083Z,17.57
2019-01-15T16:45:13.787Z,17.63
2019-01-15T16:47:51.727Z,15.07
2019-01-15T16:50:27.087Z,14.23
2019-01-15T16:53:05.233Z,18.13
2019-01-15T16:55:46.298Z,15.10
2019-01-15T16:58:24.269Z,16.20
2019-01-15T17:01:14.595Z,17.00
2019-01-15T17:03:52.473Z,21.07
2019-01-15T17:06:27.671Z,16.53
2019-01-15T17:09:03.063Z,21.57
2019-01-15T17:11:38.353Z,22.70
2019-01-15T17:14:19.342Z,22.13
2019-01-15T17:16:54.564Z,22.13
2019-01-15T17:19:29.866Z,24.17
2019-01-15T17:22:14.415Z,21.80
2019-01-15T17:24:49.707Z,17.50
2019-01-15T17:27:27.889Z,22.70
2019-01-15T17:30:06.014Z,22.17
2019-01-15T17:32:41.230Z,17.53
2019-01-15T17:35:16.520Z,18.03
2019-01-15T17:38:07.104Z,13.43
2019-01-15T17:40:45.301Z,18.90
2019-01-15T17:43:26.161Z,17.83
2019-01-15T17:46:13.293Z,22.77
2019-01-15T17:49:04.517Z,16.63
2019-01-15T17:51:39.779Z,24.23
2019-01-15T17:54:23.749Z,22.20
2019-01-15T17:57:11.259Z,16.73
2019-01-15T17:59:58.408Z,20.07
2019-01-15T18:02:49.852Z,24.93
2019-01-15T18:05:34.253Z,17.33
2019-01-15T18:08:21.670Z,19.30
2019-01-15T18:11:05.573Z,19.37
2019-01-15T18:13:43.809Z,18.27
2019-01-15T18:16:21.821Z,23.57
2019-01-15T18:19:03.373Z,21.27
2019-01-15T18:21:44.143Z,20.97
2019-01-15T18:24:21.977Z,18.57
2019-01-15T18:27:06.403Z,16.80
2019-01-15T18:29:57.775Z,20.13
2019-01-15T18:32:33.075Z,17.73
2019-01-15T18:35:10.145Z,18.80
2019-01-15T18:37:57.339Z,18.97
2019-01-15T18:40:48.899Z,21.40
2019-01-15T18:43:27.150Z,23.93
2019-01-15T18:46:05.172Z,27.37
2019-01-15T18:51:52.585Z,34.37
2019-01-15T18:54:44.124Z,27.83
2019-01-15T18:57:19.473Z,34.50
2019-01-15T19:00:03.949Z,26.87
2019-01-15T19:02:41.778Z,24.27
2019-01-15T19:05:23.001Z,22.20
2019-01-15T19:08:01.184Z,22.20
2019-01-15T19:10:36.550Z,19.17
2019-01-15T19:13:28.233Z,20.93
2019-01-15T19:16:09.725Z,17.80
2019-01-15T19:19:01.469Z,13.10
2019-01-15T19:21:36.699Z,17.53
2019-01-15T19:24:17.791Z,11.03
2019-01-15T19:27:04.985Z,9.57
2019-01-15T19:29:48.971Z,11.93
2019-01-15T19:32:29.960Z,15.50
2019-01-15T19:35:11.662Z,12.20
2019-01-15T19:37:49.441Z,10.93
2019-01-15T19:40:33.591Z,12.53
2019-01-15T19:43:25.595Z,16.43
2019-01-15T19:46:00.835Z,14.80
2019-01-15T19:48:52.437Z,16.97
2019-01-15T19:51:30.397Z,15.73
2019-01-15T19:54:22.271Z,18.80
2019-01-15T19:57:09.410Z,13.63
2019-01-15T19:59:59.875Z,19.97
2019-01-15T20:02:41.075Z,16.33
2019-01-15T20:05:29.505Z,10.50
2019-01-15T20:08:10.513Z,13.87
2019-01-15T20:10:48.597Z,21.93
2019-01-15T20:13:35.595Z,18.50
2019-01-15T20:16:26.956Z,22.03
2019-01-15T20:19:14.211Z,14.37
2019-01-15T20:22:06.022Z,16.57
2019-01-15T20:24:44.231Z,13.83
2019-01-15T20:27:35.626Z,14.33
2019-01-15T20:30:24.885Z,21.57
2019-01-15T20:33:15.076Z,14.23
2019-01-15T20:35:52.995Z,15.00
2019-01-15T20:38:36.912Z,14.13
2019-01-15T20:41:18.299Z,16.53
2019-01-15T20:44:11.523Z,18.60
2019-01-15T20:46:52.643Z,16.60
2019-01-15T20:49:44.404Z,12.03
2019-01-15T20:52:36.154Z,9.70
2019-01-15T20:55:21.439Z,10.17
2019-01-15T20:57:59.205Z,12.23
2019-01-15T21:00:46.768Z,12.17
2019-01-15T21:03:22.136Z,8.60
2019-01-15T21:06:06.617Z,11.17
2019-01-15T21:08:47.460Z,10.73
2019-01-15T21:11:28.835Z,12.77
2019-01-15T21:14:04.055Z,13.00
2019-01-15T21:16:39.333Z,12.73
2019-01-15T21:19:14.578Z,10.97
2019-01-15T21:21:55.866Z,8.83
2019-01-15T21:24:42.900Z,11.60
2019-01-15T21:27:36.732Z,12.27
2019-01-15T21:30:17.767Z,11.77
2019-01-15T21:33:04.896Z,16.73
2019-01-15T21:35:43.190Z,15.20
2019-01-15T21:38:30.223Z,12.90
2019-01-15T21:41:20.843Z,13.30
2019-01-15T21:44:14.373Z,8.97
2019-01-15T21:46:49.691Z,7.13
2019-01-15T21:49:25.049Z,9.60
2019-01-15T21:52:16.655Z,3.60
2019-01-15T21:54:51.933Z,6.27
2019-01-15T21:57:43.267Z,9.23
2019-01-15T22:00:27.761Z,3.77
2019-01-15T22:03:05.721Z,5.97
2019-01-15T22:05:46.955Z,6.73
2019-01-15T22:08:22.215Z,2.43
2019-01-15T22:11:15.819Z,5.10
2019-01-15T22:14:00.207Z,4.80
2019-01-15T22:16:35.518Z,4.10
2019-01-15T22:19:19.631Z,10.10
2019-01-15T22:22:11.207Z,2.90
2019-01-15T22:24:46.403Z,1.80
2019-01-15T22:27:36.851Z,4.67
2019-01-15T22:30:21.095Z,2.70
2019-01-15T22:33:11.762Z,3.50
2019-01-15T22:36:05.097Z,4.50
2019-01-15T22:38:58.529Z,2.63
2019-01-15T22:41:36.911Z,3.17
2019-01-15T22:44:20.923Z,2.50
2019-01-15T22:47:14.183Z,6.53
2019-01-15T22:50:07.590Z,1.93
2019-01-15T22:52:48.604Z,3.50
2019-01-15T22:55:40.332Z,2.67
2019-01-15T22:58:21.269Z,4.60
2019-01-15T23:01:14.826Z,2.23
2019-01-15T23:03:52.849Z,2.40
2019-01-15T23:06:33.761Z,3.30
2019-01-15T23:09:28.589Z,3.23
2019-01-15T23:12:20.429Z,1.43
2019-01-15T23:14:58.511Z,1.63
2019-01-15T23:17:42.867Z,3.13
2019-01-15T23:20:18.113Z,0.87
2019-01-15T23:22:53.401Z,0.97
2019-01-15T23:25:40.551Z,0.93
2019-01-15T23:28:27.835Z,1.20
2019-01-15T23:31:11.923Z,1.53
2019-01-15T23:33:52.845Z,1.80
2019-01-15T23:36:28.172Z,1.97
2019-01-15T23:39:03.465Z,1.73
2019-01-15T23:41:45.093Z,1.67
2019-01-15T23:44:26.151Z,2.63
2019-01-15T23:47:16.567Z,1.87
2019-01-15T23:49:57.437Z,1.27
2019-01-15T23:52:32.791Z,3.23
2019-01-15T23:55:23.485Z,3.93
